Time;durP1;ratioP1;P1;durP2;ratioP2;P2;SDS_P1;SDS_P2;PMS_P1;PMS_P2;Temp;Humidity;BMP_temperature;BMP_pressure;BME280_temperature;BME280_humidity;BME280_pressure;Samples;Min_cycle;Max_cycle;Signal;HPM_P1;HPM_P2
2023/04/22 00:00:48;;;;;;;19.30;12.27;;;;;;;8.41;96.66;100290.28;5072236;28;20381;-75
2023/04/22 00:03:16;;;;;;;20.15;11.88;;;;;;;8.30;97.15;100282.22;5071595;28;20093;-75
2023/04/22 00:05:44;;;;;;;15.75;11.85;;;;;;;8.22;97.77;100276.06;5071304;28;20021;-76
2023/04/22 00:08:12;;;;;;;20.75;13.30;;;;;;;8.28;99.06;100293.28;5070224;28;20032;-75
2023/04/22 00:10:38;;;;;;;24.23;12.63;;;;;;;8.21;99.57;100287.94;5071149;28;20028;-76
2023/04/22 00:13:03;;;;;;;24.75;13.45;;;;;;;8.13;100.00;100289.47;5071107;28;20039;-75
2023/04/22 00:15:31;;;;;;;27.95;14.40;;;;;;;8.09;100.00;100295.34;5070862;28;20427;-76
2023/04/22 00:17:58;;;;;;;32.92;15.68;;;;;;;8.01;100.00;100299.00;5070151;28;20037;-75
2023/04/22 00:20:24;;;;;;;33.78;16.70;;;;;;;7.97;100.00;100293.44;5075001;28;20428;-75
2023/04/22 00:22:50;;;;;;;31.95;16.65;;;;;;;7.92;100.00;100289.19;5074939;28;20040;-75
2023/04/22 00:25:15;;;;;;;35.55;17.17;;;;;;;7.85;100.00;100289.53;5073405;28;20478;-76
2023/04/22 00:27:41;;;;;;;32.00;16.00;;;;;;;7.79;100.00;100287.78;5074943;28;20107;-75
2023/04/22 00:30:08;;;;;;;36.17;16.95;;;;;;;7.73;100.00;100289.66;5075403;28;20036;-74
2023/04/22 00:32:35;;;;;;;28.15;15.80;;;;;;;7.67;100.00;100289.50;5075293;28;20095;-73
2023/04/22 00:35:15;;;;;;;27.83;15.88;;;;;;;7.65;100.00;100292.03;5076458;28;20020;-72
2023/04/22 00:37:41;;;;;;;30.92;15.95;;;;;;;7.63;100.00;100290.94;5076114;28;20029;-74
2023/04/22 00:40:08;;;;;;;29.48;15.98;;;;;;;7.61;100.00;100302.00;5074783;28;20103;-72
2023/04/22 00:42:35;;;;;;;27.90;15.75;;;;;;;7.57;100.00;100292.84;5075955;28;20070;-73
2023/04/22 00:45:01;;;;;;;33.05;16.17;;;;;;;7.51;100.00;100287.78;5076187;28;20025;-73
2023/04/22 00:47:29;;;;;;;37.72;17.30;;;;;;;7.51;100.00;100299.16;5075941;28;20140;-74
2023/04/22 00:49:54;;;;;;;38.17;18.05;;;;;;;7.49;100.00;100293.13;5074538;28;20385;-74
2023/04/22 00:52:21;;;;;;;41.38;20.50;;;;;;;7.43;100.00;100289.31;5074490;28;20020;-73
2023/04/22 00:54:48;;;;;;;47.75;22.45;;;;;;;7.39;100.00;100288.69;5075753;28;20025;-72
2023/04/22 00:57:15;;;;;;;55.83;23.67;;;;;;;7.38;100.00;100295.63;5076302;28;20462;-73
2023/04/22 00:59:49;;;;;;;59.60;25.17;;;;;;;7.31;100.00;100300.84;5076027;28;20036;-73
2023/04/22 01:02:16;;;;;;;46.70;23.13;;;;;;;7.27;100.00;100298.16;5075685;28;20025;-72
2023/04/22 01:04:44;;;;;;;49.92;21.92;;;;;;;7.21;100.00;100296.41;5075912;28;20067;-73
2023/04/22 01:07:10;;;;;;;39.58;21.23;;;;;;;7.20;100.00;100306.19;5075661;28;20021;-74
2023/04/22 01:09:35;;;;;;;42.08;20.08;;;;;;;7.19;100.00;100301.75;5057417;28;20039;-72
2023/04/22 01:12:02;;;;;;;40.13;21.40;;;;;;;7.13;100.00;100293.06;5074985;28;20024;-74
2023/04/22 01:14:42;;;;;;;40.42;19.40;;;;;;;7.12;100.00;100300.03;5075659;28;20029;-74
2023/04/22 01:17:18;;;;;;;40.22;18.70;;;;;;;7.15;100.00;100310.44;5074190;28;20108;-74
2023/04/22 01:19:46;;;;;;;37.22;18.70;;;;;;;7.17;100.00;100305.09;5074435;28;20055;-74
2023/04/22 01:22:14;;;;;;;38.35;19.70;;;;;;;7.15;100.00;100295.44;5075237;28;20052;-74
2023/04/22 01:24:40;;;;;;;45.17;19.70;;;;;;;7.15;100.00;100310.44;5057243;28;20115;-74
2023/04/22 01:27:07;;;;;;;38.97;18.58;;;;;;;7.15;100.00;100304.75;5075833;28;20035;-74
2023/04/22 01:29:36;;;;;;;44.40;19.45;;;;;;;7.15;100.00;100298.28;5073821;28;20063;-74
2023/04/22 01:32:02;;;;;;;39.60;20.73;;;;;;;7.12;100.00;100293.53;5073988;28;20044;-75
2023/04/22 01:34:30;;;;;;;40.95;20.23;;;;;;;7.06;100.00;100287.69;5074977;28;20481;-73
2023/04/22 01:36:57;;;;;;;42.53;19.95;;;;;;;7.09;100.00;100295.25;5074409;28;20024;-75
2023/04/22 01:39:23;;;;;;;34.05;18.45;;;;;;;7.07;100.00;100292.13;5075234;28;20029;-73
2023/04/22 01:41:57;;;;;;;35.85;18.65;;;;;;;7.06;100.00;100293.38;5074981;28;20101;-73
2023/04/22 01:44:24;;;;;;;40.17;19.45;;;;;;;7.01;100.00;100291.13;5075098;28;20036;-74
2023/04/22 01:46:51;;;;;;;34.80;18.17;;;;;;;6.99;100.00;100290.81;5073621;28;20028;-74
2023/04/22 01:49:16;;;;;;;33.53;17.80;;;;;;;6.98;100.00;100298.53;5074052;28;20123;-74
2023/04/22 01:51:41;;;;;;;38.90;17.45;;;;;;;6.95;100.00;100290.16;5073240;28;20125;-73
2023/04/22 01:54:09;;;;;;;35.55;16.85;;;;;;;6.93;100.00;100287.03;5071947;28;20056;-73
2023/04/22 01:56:35;;;;;;;41.42;19.63;;;;;;;6.90;100.00;100290.78;5073604;28;20032;-73
2023/04/22 01:59:01;;;;;;;38.00;17.60;;;;;;;6.87;100.00;100286.03;5073161;28;20029;-74
2023/04/22 02:01:26;;;;;;;37.38;17.83;;;;;;;6.82;100.00;100295.97;5071760;28;20035;-73
2023/04/22 02:03:51;;;;;;;37.20;19.17;;;;;;;6.80;100.00;100284.28;5073048;28;20038;-73
2023/04/22 02:06:17;;;;;;;38.05;18.55;;;;;;;6.78;100.00;100286.03;5071698;28;20116;-74
2023/04/22 02:08:42;;;;;;;40.30;20.80;;;;;;;6.74;100.00;100285.34;5072734;28;20105;-73
2023/04/22 02:11:09;;;;;;;45.78;18.85;;;;;;;6.69;100.00;100278.22;5072855;28;20024;-73
2023/04/22 02:13:36;;;;;;;36.22;18.52;;;;;;;6.66;100.00;100279.19;5072704;28;20117;-74
2023/04/22 02:16:06;;;;;;;35.92;18.33;;;;;;;6.58;100.00;100264.47;5071383;28;20377;-73
2023/04/22 02:18:34;;;;;;;35.72;16.65;;;;;;;6.57;100.00;100277.09;5073288;28;20119;-73
2023/04/22 02:21:00;;;;;;;37.75;19.35;;;;;;;6.54;100.00;100274.38;5071730;28;20036;-72
2023/04/22 02:23:26;;;;;;;34.80;18.23;;;;;;;6.52;100.00;100268.38;5074350;28;20021;-74
2023/04/22 02:25:52;;;;;;;31.17;17.05;;;;;;;6.49;100.00;100266.47;5074284;28;20477;-73
2023/04/22 02:28:18;;;;;;;32.28;16.50;;;;;;;6.46;100.00;100262.53;5074198;28;20044;-72
2023/04/22 02:30:46;;;;;;;39.28;18.48;;;;;;;6.44;100.00;100267.06;5056727;28;20382;-74
2023/04/22 02:33:14;;;;;;;34.88;16.30;;;;;;;6.41;100.00;100270.84;5072681;28;20466;-73
2023/04/22 02:35:40;;;;;;;32.67;16.83;;;;;;;6.42;100.00;100275.28;5074172;28;20070;-73
2023/04/22 02:38:09;;;;;;;40.42;18.10;;;;;;;6.40;100.00;100272.91;5072498;28;20032;-73
2023/04/22 02:40:34;;;;;;;36.00;16.88;;;;;;;6.38;100.00;100266.13;5073523;28;20516;-74
2023/04/22 02:42:59;;;;;;;35.47;18.35;;;;;;;6.31;100.00;100258.66;5072007;28;20064;-74
2023/04/22 02:45:26;;;;;;;45.10;20.20;;;;;;;6.19;100.00;100251.78;5073706;28;20025;-74
2023/04/22 02:47:51;;;;;;;44.92;21.85;;;;;;;6.30;100.00;100265.59;5074131;28;20124;-73
2023/04/22 02:50:19;;;;;;;37.38;17.67;;;;;;;6.33;100.00;100269.56;5073611;28;20115;-75
2023/04/22 02:52:46;;;;;;;32.90;17.42;;;;;;;6.36;100.00;100257.25;5073242;28;20409;-74
2023/04/22 02:55:12;;;;;;;36.53;16.58;;;;;;;6.29;100.00;100244.09;5072308;28;20035;-74
2023/04/22 02:57:38;;;;;;;34.80;17.15;;;;;;;6.40;100.00;100260.75;5072331;28;20052;-74
2023/04/22 03:00:05;;;;;;;30.10;16.65;;;;;;;6.41;100.00;100254.63;5072179;28;20465;-74
2023/04/22 03:02:38;;;;;;;34.40;15.80;;;;;;;6.41;100.00;100253.81;5072932;28;20052;-73
2023/04/22 03:05:04;;;;;;;31.23;16.35;;;;;;;6.42;100.00;100261.88;5073541;28;20024;-74
2023/04/22 03:07:29;;;;;;;29.27;15.35;;;;;;;6.42;100.00;100263.94;5072430;28;20032;-73
2023/04/22 03:09:56;;;;;;;33.75;17.48;;;;;;;6.40;100.00;100267.22;5073486;28;20445;-73
2023/04/22 03:12:21;;;;;;;33.70;17.73;;;;;;;6.37;100.00;100265.31;5073333;28;20189;-72
2023/04/22 03:14:48;;;;;;;29.80;15.95;;;;;;;6.34;100.00;100263.41;5072132;28;20127;-73
2023/04/22 03:17:14;;;;;;;34.50;17.13;;;;;;;6.31;100.00;100258.66;5071855;28;20115;-75
2023/04/22 03:19:41;;;;;;;32.85;15.70;;;;;;;6.32;100.00;100260.25;5071971;28;20036;-73
2023/04/22 03:22:06;;;;;;;29.60;15.93;;;;;;;6.29;100.00;100261.13;5073308;28;20100;-74
2023/04/22 03:24:33;;;;;;;28.88;15.70;;;;;;;6.28;100.00;100251.06;5073277;28;20476;-75
2023/04/22 03:26:58;;;;;;;31.67;17.10;;;;;;;6.27;100.00;100252.31;5071433;28;20074;-74
2023/04/22 03:29:25;;;;;;;23.23;15.18;;;;;;;6.28;100.00;100250.25;5073282;28;20033;-74
2023/04/22 03:31:51;;;;;;;33.17;15.90;;;;;;;6.29;100.00;100251.84;5073126;28;20036;-73
2023/04/22 03:34:16;;;;;;;32.47;17.35;;;;;;;6.27;100.00;100254.34;5073448;28;20112;-75
2023/04/22 03:36:43;;;;;;;28.15;15.35;;;;;;;6.25;100.00;100249.94;5073106;28;20048;-74
2023/04/22 03:39:09;;;;;;;28.30;15.20;;;;;;;6.26;100.00;100253.56;5073037;28;20028;-72
2023/04/22 03:41:34;;;;;;;27.25;14.70;;;;;;;6.23;100.00;100249.63;5071481;28;20032;-74
2023/04/22 03:43:59;;;;;;;28.98;16.02;;;;;;;6.24;100.00;100244.72;5072840;28;20063;-73
2023/04/22 03:46:25;;;;;;;28.65;16.50;;;;;;;6.25;100.00;100251.97;5073060;28;20059;-73
2023/04/22 03:48:50;;;;;;;26.80;14.32;;;;;;;6.23;100.00;100248.81;5073129;28;20465;-74
2023/04/22 03:51:15;;;;;;;29.30;15.63;;;;;;;6.25;100.00;100246.28;5073103;28;20100;-75
2023/04/22 03:53:41;;;;;;;31.48;15.93;;;;;;;6.27;100.00;100249.47;5074191;28;20547;-73
2023/04/22 03:56:06;;;;;;;25.42;14.98;;;;;;;6.29;100.00;100246.19;5077154;28;20013;-75
2023/04/22 03:58:31;;;;;;;29.17;17.63;;;;;;;6.30;100.00;100245.72;5075757;28;20059;-73
2023/04/22 04:00:57;;;;;;;30.20;16.30;;;;;;;6.25;100.00;100237.78;5076774;28;20522;-74
2023/04/22 04:03:22;;;;;;;27.58;16.83;;;;;;;6.33;100.00;100250.50;5058809;28;20025;-74
2023/04/22 04:05:48;;;;;;;28.77;14.90;;;;;;;6.37;100.00;100259.66;5076688;28;20564;-74
2023/04/22 04:08:13;;;;;;;29.05;15.93;;;;;;;6.41;100.00;100250.97;5075610;28;20020;-74
2023/04/22 04:10:38;;;;;;;25.08;14.70;;;;;;;6.43;100.00;100245.66;5076776;28;20039;-74
2023/04/22 04:13:04;;;;;;;31.75;17.50;;;;;;;6.48;100.00;100253.56;5076532;28;20389;-74
2023/04/22 04:15:31;;;;;;;32.28;17.73;;;;;;;6.53;100.00;100247.28;5076976;28;20107;-74
2023/04/22 04:17:56;;;;;;;33.17;17.10;;;;;;;6.55;100.00;100251.22;5076847;28;20446;-73
2023/04/22 04:20:22;;;;;;;35.80;17.35;;;;;;;6.58;100.00;100246.66;5076369;28;20533;-75
2023/04/22 04:22:47;;;;;;;27.83;16.05;;;;;;;6.57;100.00;100245.88;5076747;28;20029;-74
2023/04/22 04:25:12;;;;;;;30.45;17.30;;;;;;;6.58;100.00;100246.66;5076183;28;20028;-75
2023/04/22 04:27:38;;;;;;;28.08;17.38;;;;;;;6.58;100.00;100249.50;5076579;28;20033;-73
2023/04/22 04:30:05;;;;;;;33.38;18.83;;;;;;;6.61;100.00;100257.88;5076662;28;20030;-74
2023/04/22 04:32:33;;;;;;;29.40;18.08;;;;;;;6.63;100.00;100254.56;5075360;28;20037;-73
2023/04/22 04:34:59;;;;;;;31.67;20.23;;;;;;;6.62;100.00;100248.09;5076154;28;20024;-73
2023/04/22 04:37:30;;;;;;;37.30;21.30;;;;;;;6.63;100.00;100246.06;5075691;28;20206;-73
2023/04/22 04:39:58;;;;;;;29.83;18.95;;;;;;;6.66;100.00;100245.91;5076227;28;20024;-73
2023/04/22 04:42:26;;;;;;;31.73;17.92;;;;;;;6.71;100.00;100250.16;5076164;28;20199;-74
2023/04/22 04:44:52;;;;;;;28.25;16.45;;;;;;;6.75;100.00;100258.53;5076368;28;20028;-75
2023/04/22 04:47:18;;;;;;;27.60;16.80;;;;;;;6.79;100.00;100264.84;5074812;28;20028;-73
2023/04/22 04:49:46;;;;;;;30.30;18.33;;;;;;;6.85;100.00;100271.50;5074930;28;20024;-73
2023/04/22 04:52:11;;;;;;;33.00;18.35;;;;;;;6.92;100.00;100259.88;5075747;28;20043;-74
2023/04/22 04:54:37;;;;;;;28.65;16.42;;;;;;;6.99;100.00;100270.91;5075489;28;20041;-75
2023/04/22 04:57:04;;;;;;;22.30;13.50;;;;;;;6.98;100.00;100267.28;5076084;28;20047;-73
2023/04/22 04:59:29;;;;;;;32.95;16.48;;;;;;;7.02;100.00;100262.28;5057901;28;20032;-73
2023/04/22 05:01:56;;;;;;;26.30;16.20;;;;;;;7.08;100.00;100268.09;5076122;28;20146;-74
2023/04/22 05:04:22;;;;;;;27.58;16.00;;;;;;;7.10;100.00;100263.53;5074917;28;20044;-74
2023/04/22 05:06:49;;;;;;;35.10;16.42;;;;;;;7.18;100.00;100268.91;5075573;28;20111;-76
2023/04/22 05:09:14;;;;;;;32.10;16.85;;;;;;;7.23;100.00;100277.59;5075644;28;20382;-75
2023/04/22 05:11:41;;;;;;;23.27;16.02;;;;;;;7.25;100.00;100266.56;5074385;28;20499;-74
2023/04/22 05:14:14;;;;;;;23.98;15.10;;;;;;;7.31;100.00;100276.06;5075869;28;20021;-74
2023/04/22 05:16:40;;;;;;;27.40;14.57;;;;;;;7.35;100.00;100268.16;5075785;28;20020;-74
2023/04/22 05:19:05;;;;;;;27.05;15.02;;;;;;;7.44;100.00;100270.22;5074454;28;20032;-74
2023/04/22 05:21:32;;;;;;;27.73;16.25;;;;;;;7.52;100.00;100271.50;5074128;28;20072;-75
2023/04/22 05:23:57;;;;;;;26.77;15.63;;;;;;;7.59;100.00;100268.34;5075998;28;20054;-75
2023/04/22 05:26:23;;;;;;;27.13;15.73;;;;;;;7.70;100.00;100282.09;5075579;28;20052;-74
2023/04/22 05:28:57;;;;;;;25.00;15.88;;;;;;;7.75;100.00;100278.63;5075722;28;20037;-76
2023/04/22 05:31:23;;;;;;;27.67;16.77;;;;;;;7.88;100.00;100270.69;5074031;28;20040;-72
2023/04/22 05:33:48;;;;;;;32.22;16.85;;;;;;;7.97;100.00;100271.47;5075249;28;20393;-72
2023/04/22 05:36:14;;;;;;;33.45;17.40;;;;;;;8.03;100.00;100273.69;5075162;28;20531;-73
2023/04/22 05:38:41;;;;;;;29.20;15.38;;;;;;;8.14;100.00;100277.63;5073838;28;20041;-70
2023/04/22 05:41:06;;;;;;;28.55;15.52;;;;;;;8.23;100.00;100269.09;5074976;28;20044;-74
2023/04/22 05:43:33;;;;;;;24.15;15.05;;;;;;;8.28;100.00;100271.31;5073735;28;20028;-75
2023/04/22 05:46:07;;;;;;;23.63;14.43;;;;;;;8.41;100.00;100271.09;5074761;28;20033;-73
2023/04/22 05:48:34;;;;;;;29.90;14.98;;;;;;;8.52;100.00;100267.75;5074639;28;20496;-75
2023/04/22 05:51:02;;;;;;;22.63;14.82;;;;;;;8.59;100.00;100264.56;5074474;28;20429;-73
2023/04/22 05:53:28;;;;;;;28.00;15.25;;;;;;;8.51;100.00;100244.19;5073824;28;20493;-74
2023/04/22 05:55:56;;;;;;;22.85;14.40;;;;;;;8.81;100.00;100267.94;5074265;28;20028;-79
2023/04/22 05:58:21;;;;;;;25.85;15.18;;;;;;;8.97;100.00;100270.41;5074852;28;20032;-75
2023/04/22 06:00:48;;;;;;;26.77;15.07;;;;;;;9.04;100.00;100249.34;5073483;28;20029;-75
2023/04/22 06:03:13;;;;;;;23.92;14.27;;;;;;;9.25;100.00;100274.69;5074974;28;20024;-75
2023/04/22 06:05:41;;;;;;;23.80;14.80;;;;;;;9.39;100.00;100266.69;5056658;28;20024;-76
2023/04/22 06:08:07;;;;;;;27.55;14.65;;;;;;;9.49;100.00;100282.47;5074958;28;20068;-75
2023/04/22 06:10:32;;;;;;;33.28;15.80;;;;;;;9.63;100.00;100270.31;5073230;28;20016;-76
2023/04/22 06:13:00;;;;;;;31.15;15.55;;;;;;;9.66;100.00;100278.69;5074507;28;20033;-77
2023/04/22 06:15:26;;;;;;;29.15;14.88;;;;;;;9.79;100.00;100281.28;5073612;28;20036;-78
2023/04/22 06:17:52;;;;;;;31.50;14.75;;;;;;;9.91;100.00;100288.81;5074144;28;20020;-76
2023/04/22 06:20:19;;;;;;;27.58;14.88;;;;;;;10.02;100.00;100282.53;5074422;28;20036;-75
2023/04/22 06:22:45;;;;;;;23.90;13.77;;;;;;;10.09;100.00;100282.94;5073236;28;20116;-75
2023/04/22 06:25:11;;;;;;;34.30;15.25;;;;;;;10.30;100.00;100275.28;5074365;28;20449;-73
2023/04/22 06:27:36;;;;;;;19.85;12.85;;;;;;;10.45;100.00;100286.69;5072964;28;20067;-73
2023/04/22 06:30:04;;;;;;;21.27;12.90;;;;;;;10.59;100.00;100288.75;5072500;28;20036;-75
2023/04/22 06:32:31;;;;;;;18.90;12.82;;;;;;;10.67;100.00;100280.59;5074345;28;20025;-77
2023/04/22 06:34:57;;;;;;;16.02;11.65;;;;;;;10.95;100.00;100276.88;5077786;28;20450;-81
2023/04/22 06:37:25;;;;;;;18.38;11.57;;;;;;;12.14;100.00;100281.59;5074015;28;20029;-74
2023/04/22 06:39:52;;;;;;;18.52;12.52;;;;;;;14.69;97.77;100289.38;5073900;28;20074;-76
2023/04/22 06:42:17;;;;;;;16.85;11.45;;;;;;;17.07;73.94;100291.84;5074081;28;20093;-78
2023/04/22 06:44:44;;;;;;;19.98;12.32;;;;;;;19.64;62.96;100298.50;5072527;28;20529;-77
2023/04/22 06:47:10;;;;;;;17.10;11.63;;;;;;;22.46;54.53;100300.69;5072352;28;20028;-78
2023/04/22 06:49:38;;;;;;;18.33;11.80;;;;;;;24.69;42.39;100307.34;5073618;28;20024;-80
2023/04/22 06:52:12;;;;;;;17.50;12.65;;;;;;;26.14;37.16;100311.47;5073463;28;20032;-79
2023/04/22 06:54:38;;;;;;;17.65;12.07;;;;;;;27.48;34.96;100310.78;5073603;28;20067;-76
2023/04/22 06:57:03;;;;;;;16.67;10.60;;;;;;;28.57;29.36;100298.72;5073882;28;20425;-76
2023/04/22 06:59:29;;;;;;;16.73;10.35;;;;;;;28.76;28.14;100295.75;5073531;28;20381;-79
2023/04/22 07:01:55;;;;;;;19.55;10.75;;;;;;;29.85;28.71;100299.19;5073750;28;20402;-79
2023/04/22 07:04:22;;;;;;;20.13;10.68;;;;;;;31.03;26.31;100299.06;5072332;28;20108;-75
2023/04/22 07:06:48;;;;;;;18.92;12.02;;;;;;;31.94;26.08;100281.25;5073743;28;20023;-74
2023/04/22 07:09:13;;;;;;;16.27;11.52;;;;;;;32.72;24.53;100276.34;5073538;28;20107;-76
2023/04/22 07:11:45;;;;;;;15.00;12.07;;;;;;;33.51;23.45;100275.66;5073277;28;20025;-77
2023/04/22 07:14:12;;;;;;;14.77;12.60;;;;;;;33.81;22.81;100276.53;5073653;28;20032;-79
2023/04/22 07:16:38;;;;;;;16.48;11.77;;;;;;;34.23;22.66;100274.28;5073258;28;20070;-76
2023/04/22 07:19:04;;;;;;;16.65;12.13;;;;;;;34.50;21.67;100268.25;5073520;28;20450;-76
2023/04/22 07:21:32;;;;;;;12.73;11.25;;;;;;;35.03;21.36;100282.75;5073581;28;20024;-79
2023/04/22 07:23:58;;;;;;;15.25;12.25;;;;;;;35.13;20.74;100262.47;5054929;28;20078;-76
2023/04/22 07:26:23;;;;;;;13.70;11.27;;;;;;;35.88;21.09;100266.72;5071934;28;20032;-77
2023/04/22 07:28:52;;;;;;;12.00;10.75;;;;;;;36.72;20.29;100259.19;5053837;28;20466;-77
2023/04/22 07:31:23;;;;;;;14.93;11.55;;;;;;;37.20;18.83;100266.34;5072243;28;20031;-77
2023/04/22 07:34:03;;;;;;;14.85;11.32;;;;;;;37.71;19.40;100257.91;5071823;28;20036;-81
2023/04/22 07:36:28;;;;;;;13.55;12.15;;;;;;;38.29;18.68;100258.53;5072764;28;20053;-80
2023/04/22 07:38:54;;;;;;;12.48;11.07;;;;;;;38.51;18.29;100259.25;5072753;28;20438;-81
2023/04/22 07:41:20;;;;;;;19.40;12.73;;;;;;;38.71;17.76;100253.22;5073344;28;20077;-76
2023/04/22 07:43:47;;;;;;;14.80;11.30;;;;;;;38.83;17.55;100253.63;5073100;28;20033;-77
2023/04/22 07:46:14;;;;;;;15.45;11.60;;;;;;;38.87;17.45;100244.78;5073364;28;20097;-74
2023/04/22 07:48:40;;;;;;;18.23;12.50;;;;;;;39.17;16.84;100250.22;5073170;28;20040;-74
2023/04/22 07:51:06;;;;;;;14.43;11.60;;;;;;;39.34;16.57;100244.03;5072931;28;20025;-75
2023/04/22 07:53:33;;;;;;;15.75;11.35;;;;;;;39.40;16.74;100249.41;5072426;28;20500;-75
2023/04/22 07:56:01;;;;;;;17.15;10.88;;;;;;;38.80;16.39;100249.06;5073006;28;20028;-75
2023/04/22 07:58:28;;;;;;;19.38;12.10;;;;;;;38.89;16.60;100241.09;5071942;28;20043;-75
2023/04/22 08:00:54;;;;;;;16.40;11.75;;;;;;;39.19;16.41;100247.28;5072476;28;20440;-74
2023/04/22 08:03:19;;;;;;;14.60;11.95;;;;;;;39.55;16.69;100239.41;5072793;28;20466;-73
2023/04/22 08:05:55;;;;;;;20.52;12.80;;;;;;;39.89;16.61;100232.91;5072714;28;20102;-74
2023/04/22 08:08:25;;;;;;;13.15;11.85;;;;;;;39.85;16.57;100239.50;5071344;28;20040;-77
2023/04/22 08:10:51;;;;;;;18.63;11.30;;;;;;;39.59;15.95;100229.81;5073035;28;20100;-74
2023/04/22 08:13:25;;;;;;;15.35;11.20;;;;;;;39.45;16.10;100233.13;5073069;28;20108;-75
2023/04/22 08:15:51;;;;;;;16.17;11.32;;;;;;;39.25;16.23;100226.50;5072839;28;20032;-74
2023/04/22 08:18:17;;;;;;;14.25;11.02;;;;;;;38.77;16.07;100223.53;5072735;28;20032;-74
2023/04/22 08:20:46;;;;;;;15.95;11.35;;;;;;;38.23;16.52;100222.47;5072752;28;20384;-77
2023/04/22 08:23:12;;;;;;;14.25;11.05;;;;;;;38.01;16.90;100231.41;5065250;28;20097;-73
2023/04/22 08:25:38;;;;;;;11.23;10.07;;;;;;;37.93;16.93;100236.31;5052392;28;20041;-74
2023/04/22 08:28:05;;;;;;;13.45;11.55;;;;;;;37.82;17.11;100229.22;5052497;28;20021;-73
2023/04/22 08:30:32;;;;;;;17.02;12.65;;;;;;;37.60;17.00;100223.19;5052464;28;20467;-72
2023/04/22 08:32:59;;;;;;;13.20;11.73;;;;;;;37.69;17.47;100233.19;5052671;28;20106;-75
2023/04/22 08:35:39;;;;;;;22.85;13.75;;;;;;;37.71;17.47;100231.06;5050558;28;20517;-71
2023/04/22 08:38:04;;;;;;;15.80;12.00;;;;;;;37.36;17.49;100228.25;5052778;28;20025;-73
2023/04/22 08:40:31;;;;;;;14.55;10.73;;;;;;;37.24;17.92;100222.53;5055372;28;20029;-73
2023/04/22 08:43:15;;;;;;;13.00;11.07;;;;;;;37.18;17.72;100218.56;5056281;28;20036;-73
2023/04/22 08:45:41;;;;;;;13.82;9.73;;;;;;;36.77;18.05;100216.19;5056030;28;20048;-73
2023/04/22 08:48:10;;;;;;;13.35;10.98;;;;;;;36.58;18.45;100219.88;5038336;28;20466;-71
2023/04/22 08:50:40;;;;;;;14.20;9.70;;;;;;;36.45;18.29;100222.34;5056253;28;20086;-75
2023/04/22 08:53:07;;;;;;;12.25;9.30;;;;;;;36.04;18.48;100216.13;5038347;28;20068;-79
2023/04/22 08:55:34;;;;;;;12.45;9.10;;;;;;;35.93;18.07;100226.78;5054556;28;20033;-73
2023/04/22 08:58:04;;;;;;;11.65;9.20;;;;;;;35.51;17.58;100222.63;5037806;28;20060;-74
2023/04/22 09:00:33;;;;;;;11.95;9.40;;;;;;;35.29;18.79;100224.59;5054912;28;20108;-75
2023/04/22 09:03:01;;;;;;;13.48;8.93;;;;;;;35.09;19.05;100223.66;5054357;28;20386;-76
2023/04/22 09:05:33;;;;;;;12.45;9.35;;;;;;;34.58;18.76;100233.03;5021527;28;20060;-72
2023/04/22 09:08:07;;;;;;;10.95;9.18;;;;;;;34.28;19.24;100220.41;5055865;28;20059;-71
2023/04/22 09:10:37;;;;;;;11.55;8.80;;;;;;;34.21;19.90;100217.81;5055805;28;20075;-71
2023/04/22 09:13:05;;;;;;;10.43;8.70;;;;;;;33.99;19.52;100219.59;5055803;28;20025;-70
2023/04/22 09:15:32;;;;;;;13.98;9.75;;;;;;;33.24;19.95;100221.50;5054299;28;20390;-71
2023/04/22 09:17:58;;;;;;;12.88;8.27;;;;;;;32.49;20.27;100220.97;5054427;28;20044;-69
2023/04/22 09:20:28;;;;;;;12.73;9.95;;;;;;;32.48;21.82;100215.72;5055489;28;20025;-70
2023/04/22 09:22:54;;;;;;;9.60;7.78;;;;;;;32.19;20.14;100222.16;5054074;28;20033;-70
2023/04/22 09:25:22;;;;;;;8.23;6.97;;;;;;;31.82;20.96;100214.03;5054707;28;20029;-87
2023/04/22 09:27:50;;;;;;;14.23;7.55;;;;;;;30.93;20.58;100220.25;5055149;28;20115;-87
2023/04/22 09:30:18;;;;;;;11.98;7.50;;;;;;;30.41;21.85;100216.81;5054529;28;20076;-81
2023/04/22 09:33:05;;;;;;;10.90;7.80;;;;;;;29.70;22.51;100223.75;5055372;28;20428;-85
2023/04/22 09:35:35;;;;;;;8.77;6.38;;;;;;;28.86;22.42;100211.16;5055442;28;20454;-87
2023/04/22 09:38:05;;;;;;;8.13;6.68;;;;;;;28.22;22.93;100218.13;5056104;28;20390;-81
2023/04/22 09:40:31;;;;;;;10.25;6.38;;;;;;;28.11;22.88;100213.63;5037662;28;20394;-84
2023/04/22 09:43:01;;;;;;;7.80;5.38;;;;;;;27.83;22.94;100217.34;5053111;28;20127;-84
2023/04/22 09:45:37;;;;;;;7.95;5.25;;;;;;;27.43;22.78;100209.88;5037928;28;20063;-85
2023/04/22 09:48:13;;;;;;;10.93;5.65;;;;;;;26.87;23.46;100205.34;5055325;28;20028;-80
2023/04/22 09:50:49;;;;;;;8.35;5.72;;;;;;;26.50;24.58;100199.44;5054406;28;20033;-79
2023/04/22 09:53:20;;;;;;;9.23;5.40;;;;;;;26.37;24.49;100196.88;5054632;28;20129;-80
2023/04/22 09:55:52;;;;;;;5.88;5.28;;;;;;;26.11;24.77;100207.22;5055476;28;20028;-79
2023/04/22 09:58:20;;;;;;;6.72;4.60;;;;;;;25.76;24.73;100208.59;5053800;28;20033;-78
2023/04/22 10:00:54;;;;;;;6.25;4.43;;;;;;;25.47;24.42;100217.84;5036979;28;20044;-83
2023/04/22 10:03:21;;;;;;;57.25;13.95;;;;;;;24.99;26.13;100202.69;5053968;28;20554;-80
2023/04/22 10:05:47;;;;;;;9.35;5.93;;;;;;;24.75;26.87;100209.28;5054130;28;20033;-81
2023/04/22 10:08:21;;;;;;;8.85;5.90;;;;;;;24.78;26.94;100221.94;5054973;28;20150;-70
2023/04/22 10:10:47;;;;;;;8.18;5.35;;;;;;;24.41;26.08;100218.66;5054529;28;20394;-72
2023/04/22 10:13:14;;;;;;;7.45;4.70;;;;;;;23.95;25.93;100209.31;5053628;28;20039;-71
2023/04/22 10:15:50;;;;;;;4.97;4.15;;;;;;;23.40;26.17;100218.03;5054658;28;20021;-70
2023/04/22 10:18:22;;;;;;;6.70;4.13;;;;;;;22.83;25.63;100209.66;5054578;28;20102;-74
2023/04/22 10:21:02;;;;;;;5.47;4.05;;;;;;;22.54;26.63;100205.34;5053303;28;20035;-72
2023/04/22 10:23:31;;;;;;;6.18;3.88;;;;;;;22.20;26.70;100213.59;5052735;28;20028;-75
2023/04/22 10:25:56;;;;;;;7.28;4.32;;;;;;;22.05;26.87;100203.44;5053384;28;20029;-74
2023/04/22 10:28:23;;;;;;;7.03;4.15;;;;;;;21.93;27.13;100210.94;5052118;28;20029;-75
2023/04/22 10:30:49;;;;;;;4.82;3.80;;;;;;;21.67;26.23;100206.19;5053124;28;20028;-74
2023/04/22 10:33:22;;;;;;;13.05;4.13;;;;;;;21.60;28.12;100203.22;5051968;28;20033;-73
2023/04/22 10:36:09;;;;;;;6.53;4.40;;;;;;;21.45;27.59;100186.47;5052104;28;20029;-77
2023/04/22 10:38:36;;;;;;;4.40;3.45;;;;;;;21.61;27.71;100205.56;5050553;28;20017;-75
2023/04/22 10:41:02;;;;;;;4.80;3.90;;;;;;;21.53;27.45;100198.91;5034384;28;20404;-74
2023/04/22 10:43:44;;;;;;;7.82;3.90;;;;;;;21.31;27.02;100202.44;5053042;28;20052;-75
2023/04/22 10:46:28;;;;;;;;;;;;;;;21.20;27.40;100200.63;5053470;28;20029;-75
2023/04/22 10:48:55;;;;;;;5.70;4.10;;;;;;;21.22;27.78;100200.06;5051986;28;19909;-74
2023/04/22 10:51:41;;;;;;;5.78;3.67;;;;;;;21.15;27.83;100210.28;5053767;28;20032;-74
2023/04/22 10:54:07;;;;;;;8.25;4.53;;;;;;;21.08;27.82;100199.38;5052330;28;20080;-72
2023/04/22 10:56:32;;;;;;;5.15;3.72;;;;;;;21.05;27.44;100185.97;5053829;28;20159;-73
2023/04/22 10:59:14;;;;;;;5.53;3.88;;;;;;;21.04;27.75;100187.31;5053575;28;20048;-74
2023/04/22 11:01:43;;;;;;;4.65;3.83;;;;;;;20.96;27.02;100192.31;5053305;28;20033;-74
2023/04/22 11:04:19;;;;;;;11.88;4.18;;;;;;;20.87;28.06;100181.19;5052483;28;20031;-75
2023/04/22 11:06:45;;;;;;;7.30;4.05;;;;;;;20.75;28.17;100186.50;5054217;28;20029;-75
2023/04/22 11:09:15;;;;;;;10.65;4.10;;;;;;;20.53;29.05;100178.34;5053974;28;20039;-73
2023/04/22 11:11:41;;;;;;;4.88;3.88;;;;;;;20.24;28.81;100182.50;5053566;28;20044;-74
2023/04/22 11:14:07;;;;;;;7.82;3.83;;;;;;;20.14;28.89;100173.50;5054085;28;20031;-75